createdAt,value
2024-05-09T00:00:15.784Z,0.51
2024-05-09T00:01:00.325Z,0.51
2024-05-09T00:01:49.419Z,0.52
2024-05-09T00:02:39.469Z,0.52
2024-05-09T00:03:29.609Z,0.52
2024-05-09T00:04:19.550Z,0.51
2024-05-09T00:05:09.695Z,0.52
2024-05-09T00:05:59.749Z,0.52
2024-05-09T00:06:49.663Z,0.52
2024-05-09T00:07:39.698Z,0.53
2024-05-09T00:08:29.968Z,0.53
2024-05-09T00:09:19.843Z,0.54
2024-05-09T00:10:17.854Z,0.53
2024-05-09T00:11:01.032Z,0.53
2024-05-09T00:11:50.073Z,0.54
2024-05-09T00:12:40.050Z,0.54
2024-05-09T00:13:30.127Z,0.54
2024-05-09T00:14:20.197Z,0.54
2024-05-09T00:15:10.196Z,0.54
2024-05-09T00:16:00.227Z,0.54
2024-05-09T00:16:50.308Z,0.55
2024-05-09T00:17:40.850Z,0.54
2024-05-09T00:18:30.639Z,0.54
2024-05-09T00:19:20.656Z,0.54
2024-05-09T00:20:17.582Z,0.54
2024-05-09T00:21:01.719Z,0.54
2024-05-09T00:21:50.633Z,0.54
2024-05-09T00:22:40.683Z,0.54
2024-05-09T00:23:30.767Z,0.55
2024-05-09T00:24:20.836Z,0.56
2024-05-09T00:25:11.080Z,0.56
2024-05-09T00:26:01.067Z,0.55
2024-05-09T00:26:50.996Z,0.55
2024-05-09T00:27:41.045Z,0.57
2024-05-09T00:28:31.104Z,0.55
2024-05-09T00:29:21.247Z,0.56
2024-05-09T00:30:17.477Z,0.56
2024-05-09T00:31:01.214Z,0.56
2024-05-09T00:31:51.338Z,0.56
2024-05-09T00:32:41.482Z,0.56
2024-05-09T00:33:31.528Z,0.55
2024-05-09T00:34:21.634Z,0.56
2024-05-09T00:35:11.533Z,0.56
2024-05-09T00:36:01.539Z,0.56
2024-05-09T00:36:51.591Z,0.56
2024-05-09T00:37:41.622Z,0.57
2024-05-09T00:38:31.887Z,0.57
2024-05-09T00:39:21.710Z,0.56
2024-05-09T00:40:18.712Z,0.56
2024-05-09T00:41:02.847Z,0.56
2024-05-09T00:41:51.859Z,0.57
2024-05-09T00:42:41.922Z,0.57
2024-05-09T00:43:32.030Z,0.58
2024-05-09T00:44:22.132Z,0.58
2024-05-09T00:45:12.135Z,0.60
2024-05-09T00:46:02.297Z,0.58
2024-05-09T00:46:52.390Z,0.60
2024-05-09T00:47:42.587Z,0.59
2024-05-09T00:48:32.638Z,0.60
2024-05-09T00:49:22.672Z,0.61
2024-05-09T00:50:15.869Z,0.61
2024-05-09T00:51:02.688Z,0.61
2024-05-09T00:51:52.701Z,0.61
2024-05-09T00:52:42.803Z,0.62
2024-05-09T00:53:32.916Z,0.62
2024-05-09T00:54:22.824Z,0.62
2024-05-09T00:55:12.909Z,0.62
2024-05-09T00:56:03.017Z,0.62
2024-05-09T00:56:53.018Z,0.61
2024-05-09T00:57:43.051Z,0.59
2024-05-09T00:58:33.119Z,0.62
2024-05-09T00:59:23.183Z,0.61
2024-05-09T01:00:22.584Z,0.61
2024-05-09T01:01:04.386Z,0.61
2024-05-09T01:01:53.447Z,0.61
2024-05-09T01:02:43.540Z,0.62
2024-05-09T01:03:33.681Z,0.61
2024-05-09T01:04:23.519Z,0.62
2024-05-09T01:05:13.685Z,0.61
2024-05-09T01:06:03.700Z,0.61
2024-05-09T01:06:53.666Z,0.59
2024-05-09T01:07:43.710Z,0.60
2024-05-09T01:08:33.978Z,0.59
2024-05-09T01:09:23.815Z,0.59
2024-05-09T01:10:20.924Z,0.59
2024-05-09T01:11:05.000Z,0.59
2024-05-09T01:11:53.989Z,0.59
2024-05-09T01:12:44.018Z,0.59
2024-05-09T01:13:34.073Z,0.59
2024-05-09T01:14:24.173Z,0.58
2024-05-09T01:15:14.177Z,0.59
2024-05-09T01:16:04.225Z,0.59
2024-05-09T01:16:54.313Z,0.58
2024-05-09T01:17:44.486Z,0.59
2024-05-09T01:18:34.429Z,0.58
2024-05-09T01:19:24.591Z,0.57
2024-05-09T01:20:20.182Z,0.58
2024-05-09T01:21:05.588Z,0.58
2024-05-09T01:21:54.618Z,0.58
2024-05-09T01:22:44.667Z,0.59
2024-05-09T01:23:34.872Z,0.59
2024-05-09T01:24:24.717Z,0.58
2024-05-09T01:25:14.781Z,0.57
2024-05-09T01:26:04.846Z,0.59
2024-05-09T01:26:54.855Z,0.59
2024-05-09T01:27:44.897Z,0.59
2024-05-09T01:28:35.009Z,0.58
2024-05-09T01:29:25.146Z,0.59
2024-05-09T01:30:20.970Z,0.57
2024-05-09T01:31:06.111Z,0.57
2024-05-09T01:31:55.212Z,0.57
2024-05-09T01:32:45.348Z,0.58
2024-05-09T01:33:35.411Z,0.57
2024-05-09T01:34:25.310Z,0.58
2024-05-09T01:35:15.403Z,0.57
2024-05-09T01:36:05.420Z,0.59
2024-05-09T01:36:55.735Z,0.57
2024-05-09T01:37:45.765Z,0.57
2024-05-09T01:38:35.884Z,0.58
2024-05-09T01:39:25.838Z,0.58
2024-05-09T01:40:21.973Z,0.56
2024-05-09T01:41:07.018Z,0.56
2024-05-09T01:41:56.056Z,0.56
2024-05-09T01:42:46.077Z,0.57
2024-05-09T01:43:36.180Z,0.56
2024-05-09T01:44:26.375Z,0.56
2024-05-09T01:45:16.297Z,0.55
2024-05-09T01:46:06.350Z,0.57
2024-05-09T01:46:56.477Z,0.56
2024-05-09T01:47:46.682Z,0.57
2024-05-09T01:48:36.742Z,0.57
2024-05-09T01:49:26.719Z,0.56
2024-05-09T01:50:18.954Z,0.55
2024-05-09T01:51:07.846Z,0.57
2024-05-09T01:51:56.794Z,0.57
2024-05-09T01:52:46.835Z,0.56
2024-05-09T01:53:36.896Z,0.57
2024-05-09T01:54:26.957Z,0.57
2024-05-09T01:55:17.035Z,0.56
2024-05-09T01:56:07.170Z,0.55
2024-05-09T01:56:57.132Z,0.57
2024-05-09T01:57:47.183Z,0.55
2024-05-09T01:58:37.266Z,0.55
2024-05-09T01:59:27.558Z,0.56
2024-05-09T02:00:26.225Z,0.55
2024-05-09T02:01:08.458Z,0.55
2024-05-09T02:01:58.027Z,0.55
2024-05-09T02:02:47.733Z,0.56
2024-05-09T02:03:37.802Z,0.55
2024-05-09T02:04:27.871Z,0.56
2024-05-09T02:05:17.987Z,0.55
2024-05-09T02:06:07.793Z,0.55
2024-05-09T02:06:57.801Z,0.56
2024-05-09T02:07:47.874Z,0.55
2024-05-09T02:08:38.022Z,0.55
2024-05-09T02:09:27.964Z,0.55
2024-05-09T02:10:23.514Z,0.56
2024-05-09T02:11:09.219Z,0.56
2024-05-09T02:11:58.294Z,0.56
2024-05-09T02:12:48.161Z,0.56
2024-05-09T02:13:38.234Z,0.56
2024-05-09T02:14:28.444Z,0.55
2024-05-09T02:15:18.362Z,0.55
2024-05-09T02:16:08.400Z,0.56
2024-05-09T02:16:58.516Z,0.54
2024-05-09T02:17:48.768Z,0.54
2024-05-09T02:18:38.758Z,0.55
2024-05-09T02:19:28.740Z,0.55
2024-05-09T02:20:27.376Z,0.55
2024-05-09T02:21:09.838Z,0.55
2024-05-09T02:21:58.832Z,0.55
2024-05-09T02:22:48.927Z,0.55
2024-05-09T02:23:38.970Z,0.55
2024-05-09T02:24:28.941Z,0.55
2024-05-09T02:25:19.015Z,0.55
2024-05-09T02:26:09.109Z,0.55
2024-05-09T02:26:59.335Z,0.56
2024-05-09T02:27:49.371Z,0.55
2024-05-09T02:28:39.488Z,0.56
2024-05-09T02:29:29.932Z,0.56
2024-05-09T02:30:29.884Z,0.57
2024-05-09T02:31:10.904Z,0.57
2024-05-09T02:32:00.088Z,0.57
2024-05-09T02:32:50.218Z,0.57
2024-05-09T02:33:40.235Z,0.58
2024-05-09T02:34:30.261Z,0.58
2024-05-09T02:35:20.317Z,0.59
2024-05-09T02:36:10.270Z,0.61
2024-05-09T02:37:00.517Z,0.60
2024-05-09T02:37:50.620Z,0.61
2024-05-09T02:38:40.666Z,0.61
2024-05-09T02:39:30.654Z,0.62
2024-05-09T02:40:25.753Z,0.61
2024-05-09T02:41:11.832Z,0.61
2024-05-09T02:42:00.843Z,0.62
2024-05-09T02:42:50.885Z,0.62
2024-05-09T02:43:40.985Z,0.63
2024-05-09T02:44:31.059Z,0.63
2024-05-09T02:45:21.089Z,0.65
2024-05-09T02:46:11.162Z,0.66
2024-05-09T02:47:01.359Z,0.65
2024-05-09T02:47:51.467Z,0.67
2024-05-09T02:48:41.495Z,0.67
2024-05-09T02:49:31.480Z,0.68
2024-05-09T02:50:29.764Z,0.68
2024-05-09T02:51:12.540Z,0.68
2024-05-09T02:52:01.568Z,0.69
2024-05-09T02:52:51.677Z,0.69
2024-05-09T02:53:41.730Z,0.69
2024-05-09T02:54:31.729Z,0.69
2024-05-09T02:55:21.800Z,0.68
2024-05-09T02:56:11.959Z,0.68
2024-05-09T02:57:02.013Z,0.69
2024-05-09T02:57:52.047Z,0.69
2024-05-09T02:58:42.119Z,0.69
2024-05-09T02:59:32.182Z,0.67
2024-05-09T03:00:29.450Z,0.68
2024-05-09T03:01:13.341Z,0.68
2024-05-09T03:02:02.412Z,0.68
2024-05-09T03:02:52.622Z,0.69
2024-05-09T03:03:42.587Z,0.69
2024-05-09T03:04:32.600Z,0.70
2024-05-09T03:05:22.543Z,0.69
2024-05-09T03:06:12.569Z,0.69
2024-05-09T03:07:02.916Z,0.70
2024-05-09T03:07:52.993Z,0.70
2024-05-09T03:08:43.058Z,0.68
2024-05-09T03:09:33.015Z,0.68
2024-05-09T03:10:28.342Z,0.68
2024-05-09T03:11:14.253Z,0.68
2024-05-09T03:12:03.458Z,0.69
2024-05-09T03:12:53.265Z,0.69
2024-05-09T03:13:43.418Z,0.69
2024-05-09T03:14:33.397Z,0.70
2024-05-09T03:15:23.434Z,0.71
2024-05-09T03:16:13.480Z,0.72
2024-05-09T03:17:03.892Z,0.72
2024-05-09T03:17:53.943Z,0.72
2024-05-09T03:18:44.047Z,0.69
2024-05-09T03:19:33.983Z,0.70
2024-05-09T03:20:27.845Z,0.69
2024-05-09T03:21:15.051Z,0.69
2024-05-09T03:22:04.074Z,0.69
2024-05-09T03:22:56.935Z,0.69
2024-05-09T03:23:44.324Z,0.69
2024-05-09T03:24:34.211Z,0.69
2024-05-09T03:25:24.288Z,0.69
2024-05-09T03:26:14.326Z,0.69
2024-05-09T03:27:04.393Z,0.69
2024-05-09T03:27:54.420Z,0.69
2024-05-09T03:28:44.599Z,0.69
2024-05-09T03:29:34.830Z,0.69
2024-05-09T03:30:31.213Z,0.70
2024-05-09T03:31:15.858Z,0.70
2024-05-09T03:32:04.964Z,0.71
2024-05-09T03:32:55.052Z,0.71
2024-05-09T03:33:45.317Z,0.71
2024-05-09T03:34:35.043Z,0.72
2024-05-09T03:35:25.266Z,0.72
2024-05-09T03:36:15.147Z,0.72
2024-05-09T03:37:05.449Z,0.73
2024-05-09T03:37:55.523Z,0.71
2024-05-09T03:38:45.607Z,0.72
2024-05-09T03:39:35.582Z,0.72
2024-05-09T03:40:29.021Z,0.71
2024-05-09T03:41:16.758Z,0.71
2024-05-09T03:42:05.805Z,0.71
2024-05-09T03:42:55.796Z,0.72
2024-05-09T03:43:45.963Z,0.71
2024-05-09T03:44:35.991Z,0.73
2024-05-09T03:45:26.023Z,0.71
2024-05-09T03:46:16.015Z,0.73
2024-05-09T03:47:06.420Z,0.72
2024-05-09T03:47:56.629Z,0.70
2024-05-09T03:48:46.498Z,0.70
2024-05-09T03:49:36.538Z,0.71
2024-05-09T03:50:33.630Z,0.70
2024-05-09T03:51:17.633Z,0.70
2024-05-09T03:52:06.678Z,0.71
2024-05-09T03:52:56.709Z,0.71
2024-05-09T03:53:46.844Z,0.71
2024-05-09T03:54:36.841Z,0.72
2024-05-09T03:55:26.911Z,0.71
2024-05-09T03:56:16.980Z,0.71
2024-05-09T03:57:07.260Z,0.71
2024-05-09T03:57:57.276Z,0.70
2024-05-09T03:58:47.371Z,0.71
2024-05-09T03:59:37.404Z,0.72
2024-05-09T04:00:35.207Z,0.70
2024-05-09T04:01:18.470Z,0.70
2024-05-09T04:02:07.576Z,0.70
2024-05-09T04:02:57.623Z,0.70
2024-05-09T04:03:47.799Z,0.70
2024-05-09T04:04:37.737Z,0.70
2024-05-09T04:05:27.826Z,0.70
2024-05-09T04:06:17.781Z,0.70
2024-05-09T04:07:08.046Z,0.70
2024-05-09T04:07:58.251Z,0.70
2024-05-09T04:08:48.228Z,0.69
2024-05-09T04:09:38.184Z,0.70
2024-05-09T04:10:33.233Z,0.69
2024-05-09T04:11:19.427Z,0.69
2024-05-09T04:12:08.564Z,0.70
2024-05-09T04:12:58.455Z,0.70
2024-05-09T04:13:48.545Z,0.70
2024-05-09T04:14:38.564Z,0.74
2024-05-09T04:15:28.592Z,0.74
2024-05-09T04:16:18.631Z,0.75
2024-05-09T04:17:08.737Z,0.75
2024-05-09T04:17:58.968Z,0.74
2024-05-09T04:18:49.349Z,0.74
2024-05-09T04:19:38.840Z,0.71
2024-05-09T04:20:36.847Z,0.72
2024-05-09T04:21:19.984Z,0.72
2024-05-09T04:22:09.022Z,0.72
2024-05-09T04:22:59.138Z,0.71
2024-05-09T04:23:49.267Z,0.71
2024-05-09T04:24:39.160Z,0.71
2024-05-09T04:25:29.191Z,0.70
2024-05-09T04:26:19.306Z,0.67
2024-05-09T04:27:09.550Z,0.67
2024-05-09T04:27:59.578Z,0.65
2024-05-09T04:28:49.718Z,0.68
2024-05-09T04:29:39.733Z,0.65
2024-05-09T04:30:37.450Z,0.65
2024-05-09T04:31:20.808Z,0.65
2024-05-09T04:32:10.032Z,0.65
2024-05-09T04:33:00.026Z,0.66
2024-05-09T04:33:50.147Z,0.65
2024-05-09T04:34:40.107Z,0.64
2024-05-09T04:35:30.113Z,0.65
2024-05-09T04:36:20.111Z,0.64
2024-05-09T04:37:10.380Z,0.62
2024-05-09T04:38:00.558Z,0.64
2024-05-09T04:38:50.494Z,0.63
2024-05-09T04:39:40.521Z,0.63
2024-05-09T04:40:34.415Z,0.62
2024-05-09T04:41:21.720Z,0.62
2024-05-09T04:42:10.749Z,0.63
2024-05-09T04:43:00.752Z,0.62
2024-05-09T04:43:50.996Z,0.62
2024-05-09T04:44:40.903Z,0.63
2024-05-09T04:45:30.983Z,0.63
2024-05-09T04:46:21.012Z,0.61
2024-05-09T04:47:11.361Z,0.62
2024-05-09T04:48:02.062Z,0.60
2024-05-09T04:48:51.419Z,0.60
2024-05-09T04:49:41.448Z,0.59
2024-05-09T04:50:36.706Z,0.59
2024-05-09T04:51:22.457Z,0.59
2024-05-09T04:52:11.509Z,0.59
2024-05-09T04:53:01.599Z,0.58
2024-05-09T04:53:51.678Z,0.59
2024-05-09T04:54:41.670Z,0.58
2024-05-09T04:55:31.802Z,0.57
2024-05-09T04:56:21.825Z,0.57
2024-05-09T04:57:11.984Z,0.57
2024-05-09T04:58:02.033Z,0.56
2024-05-09T04:58:52.125Z,0.58
2024-05-09T04:59:42.122Z,0.57
2024-05-09T05:00:36.594Z,0.58
2024-05-09T05:01:23.302Z,0.58
2024-05-09T05:02:12.427Z,0.58
2024-05-09T05:03:02.466Z,0.58
2024-05-09T05:03:53.019Z,0.59
2024-05-09T05:04:42.731Z,0.59
2024-05-09T05:05:32.592Z,0.59
2024-05-09T05:06:22.563Z,0.60
2024-05-09T05:07:12.873Z,0.60
2024-05-09T05:08:03.015Z,0.61
2024-05-09T05:08:52.995Z,0.61
2024-05-09T05:09:43.297Z,0.59
2024-05-09T05:10:36.347Z,0.60
2024-05-09T05:11:23.567Z,0.60
2024-05-09T05:12:13.801Z,0.60
2024-05-09T05:13:03.770Z,0.60
2024-05-09T05:13:53.865Z,0.60
2024-05-09T05:14:43.866Z,0.60
2024-05-09T05:15:33.941Z,0.61
2024-05-09T05:16:23.970Z,0.60
2024-05-09T05:17:14.119Z,0.60
2024-05-09T05:18:04.265Z,0.60
2024-05-09T05:18:54.175Z,0.59
2024-05-09T05:19:44.445Z,0.60
2024-05-09T05:20:34.544Z,0.60
2024-05-09T05:21:24.426Z,0.60
2024-05-09T05:22:14.383Z,0.60
2024-05-09T05:23:04.528Z,0.63
2024-05-09T05:23:54.525Z,0.63
2024-05-09T05:24:44.520Z,0.62
2024-05-09T05:25:34.661Z,0.62
2024-05-09T05:26:24.643Z,0.61
2024-05-09T05:27:14.705Z,0.59
2024-05-09T05:28:04.716Z,0.61
2024-05-09T05:28:54.949Z,0.59
2024-05-09T05:29:44.933Z,0.58
2024-05-09T05:30:35.309Z,0.59
2024-05-09T05:31:24.943Z,0.59
2024-05-09T05:32:15.384Z,0.57
2024-05-09T05:33:05.125Z,0.55
2024-05-09T05:33:55.138Z,0.56
2024-05-09T05:34:45.213Z,0.56
2024-05-09T05:35:35.396Z,0.55
2024-05-09T05:36:25.299Z,0.54
2024-05-09T05:37:15.384Z,0.54
2024-05-09T05:38:05.461Z,0.54
2024-05-09T05:38:55.592Z,0.53
2024-05-09T05:39:45.516Z,0.53
2024-05-09T05:40:37.775Z,0.53
2024-05-09T05:41:25.668Z,0.53
2024-05-09T05:42:15.721Z,0.52
2024-05-09T05:43:05.720Z,0.52
2024-05-09T05:43:55.925Z,0.52
2024-05-09T05:44:46.026Z,0.51
2024-05-09T05:45:36.127Z,0.50
2024-05-09T05:46:26.145Z,0.50
2024-05-09T05:47:16.409Z,0.51
2024-05-09T05:48:07.029Z,0.51
2024-05-09T05:48:56.552Z,0.51
2024-05-09T05:49:46.348Z,0.51
2024-05-09T05:50:38.255Z,0.50
2024-05-09T05:51:26.531Z,0.51
2024-05-09T05:52:16.507Z,0.50
2024-05-09T05:53:07.079Z,0.50
2024-05-09T05:53:56.682Z,0.50
2024-05-09T05:54:46.631Z,0.50
2024-05-09T05:55:36.835Z,0.50
2024-05-09T05:56:26.862Z,0.51
2024-05-09T05:57:16.954Z,0.63
2024-05-09T05:58:06.951Z,0.85
2024-05-09T05:58:57.069Z,0.86
2024-05-09T05:59:47.027Z,0.78
2024-05-09T06:00:39.346Z,0.72
2024-05-09T06:01:27.141Z,0.68
2024-05-09T06:02:17.590Z,0.65
2024-05-09T06:03:07.707Z,0.63
2024-05-09T06:03:57.671Z,0.60
2024-05-09T06:04:47.695Z,0.58
2024-05-09T06:05:37.760Z,0.57
2024-05-09T06:06:27.650Z,0.56
2024-05-09T06:07:17.743Z,0.53
2024-05-09T06:08:07.833Z,0.52
2024-05-09T06:08:58.205Z,0.53
2024-05-09T06:09:49.957Z,0.53
2024-05-09T06:10:40.909Z,0.53
2024-05-09T06:11:28.276Z,0.53
2024-05-09T06:12:18.641Z,0.53
2024-05-09T06:13:08.521Z,0.52
2024-05-09T06:13:58.701Z,0.52
2024-05-09T06:14:48.612Z,0.51
2024-05-09T06:15:38.794Z,0.51
2024-05-09T06:16:28.750Z,0.51
2024-05-09T06:17:19.004Z,0.52
2024-05-09T06:18:09.689Z,0.51
2024-05-09T06:18:59.193Z,0.51
2024-05-09T06:19:49.307Z,0.53
2024-05-09T06:20:39.186Z,0.53
2024-05-09T06:21:29.097Z,0.53
2024-05-09T06:22:19.179Z,0.52
2024-05-09T06:23:10.069Z,0.54
2024-05-09T06:23:59.375Z,0.53
2024-05-09T06:24:49.315Z,0.53
2024-05-09T06:25:39.477Z,0.53
2024-05-09T06:26:29.528Z,0.54
2024-05-09T06:27:19.521Z,0.53
2024-05-09T06:28:09.553Z,0.55
2024-05-09T06:28:59.760Z,0.53
2024-05-09T06:29:49.631Z,0.53
2024-05-09T06:30:41.746Z,0.52
2024-05-09T06:31:29.739Z,0.52
2024-05-09T06:32:20.068Z,0.52
2024-05-09T06:33:11.313Z,0.52
2024-05-09T06:34:00.123Z,0.52
2024-05-09T06:34:49.932Z,0.52
2024-05-09T06:35:40.588Z,0.52
2024-05-09T06:36:30.011Z,0.52
2024-05-09T06:37:20.113Z,0.53
2024-05-09T06:38:10.389Z,0.52
2024-05-09T06:39:00.305Z,0.53
2024-05-09T06:39:50.261Z,0.53
2024-05-09T06:40:42.101Z,0.54
2024-05-09T06:41:30.459Z,0.54
2024-05-09T06:42:20.443Z,0.54
2024-05-09T06:43:10.516Z,0.54
2024-05-09T06:44:00.672Z,0.53
2024-05-09T06:44:50.876Z,0.54
2024-05-09T06:45:41.143Z,0.53
2024-05-09T06:46:30.928Z,0.52
2024-05-09T06:47:21.146Z,0.52
2024-05-09T06:48:11.280Z,0.52
2024-05-09T06:49:01.376Z,0.52
2024-05-09T06:49:51.196Z,0.52
2024-05-09T06:50:41.435Z,0.53
2024-05-09T06:51:31.404Z,0.53
2024-05-09T06:52:21.445Z,0.52
2024-05-09T06:53:11.514Z,0.52
2024-05-09T06:54:01.648Z,0.55
2024-05-09T06:54:51.622Z,0.54
2024-05-09T06:55:41.743Z,0.55
2024-05-09T06:56:31.871Z,0.56
2024-05-09T06:57:21.788Z,0.56
2024-05-09T06:58:11.880Z,0.54
2024-05-09T06:59:02.023Z,0.57
2024-05-09T06:59:51.956Z,0.58
2024-05-09T07:00:42.540Z,0.58
2024-05-09T07:01:32.040Z,0.57
2024-05-09T07:02:22.704Z,0.56
2024-05-09T07:03:14.253Z,0.54
2024-05-09T07:04:02.716Z,0.54
2024-05-09T07:04:52.876Z,0.54
2024-05-09T07:05:42.968Z,0.54
2024-05-09T07:06:32.634Z,0.54
2024-05-09T07:07:22.789Z,0.54
2024-05-09T07:08:13.179Z,0.52
2024-05-09T07:09:03.076Z,0.53
2024-05-09T07:09:53.100Z,0.52
2024-05-09T07:10:43.250Z,0.54
2024-05-09T07:11:33.379Z,0.51
2024-05-09T07:12:23.438Z,0.51
2024-05-09T07:13:13.571Z,0.51
2024-05-09T07:14:03.466Z,0.52
2024-05-09T07:14:53.515Z,0.52
2024-05-09T07:15:43.652Z,0.54
2024-05-09T07:16:33.584Z,0.57
2024-05-09T07:17:23.841Z,0.60
2024-05-09T07:18:14.237Z,0.60
2024-05-09T07:19:04.120Z,0.59
2024-05-09T07:19:53.817Z,0.58
2024-05-09T07:20:43.970Z,0.56
2024-05-09T07:21:33.880Z,0.55
2024-05-09T07:22:24.016Z,0.56
2024-05-09T07:23:14.127Z,0.55
2024-05-09T07:24:04.103Z,0.55
2024-05-09T07:24:54.118Z,0.56
2024-05-09T07:25:44.215Z,0.54
2024-05-09T07:26:34.393Z,0.55
2024-05-09T07:27:24.369Z,0.55
2024-05-09T07:28:14.459Z,0.54
2024-05-09T07:29:04.584Z,0.53
2024-05-09T07:29:54.480Z,0.52
2024-05-09T07:30:44.724Z,0.52
2024-05-09T07:31:34.639Z,0.52
2024-05-09T07:32:24.972Z,0.53
2024-05-09T07:33:14.937Z,0.52
2024-05-09T07:34:04.927Z,0.52
2024-05-09T07:34:54.920Z,0.51
2024-05-09T07:35:45.025Z,0.51
2024-05-09T07:36:35.018Z,0.51
2024-05-09T07:37:25.048Z,0.56
2024-05-09T07:38:15.352Z,0.56
2024-05-09T07:39:05.443Z,0.57
2024-05-09T07:39:55.387Z,0.59
2024-05-09T07:40:45.664Z,0.67
2024-05-09T07:41:35.565Z,0.87
2024-05-09T07:42:25.591Z,1.03
2024-05-09T07:43:15.732Z,1.39
2024-05-09T07:44:05.887Z,1.26
2024-05-09T07:45:00.944Z,1.16
2024-05-09T07:45:52.484Z,1.07
2024-05-09T07:47:47.291Z,1.03
2024-05-09T07:49:45.422Z,0.94
2024-05-09T07:53:38.050Z,0.95
2024-05-09T07:54:07.780Z,0.95
2024-05-09T07:54:56.874Z,0.87
2024-05-09T07:55:46.859Z,0.84
2024-05-09T07:56:37.132Z,0.79
2024-05-09T07:57:26.895Z,0.75
2024-05-09T07:58:17.006Z,0.73
2024-05-09T07:59:06.966Z,0.74
2024-05-09T07:59:57.099Z,0.68
2024-05-09T08:00:47.207Z,0.68
2024-05-09T08:01:37.437Z,0.72
2024-05-09T08:02:27.341Z,0.70
2024-05-09T08:03:17.343Z,0.70
2024-05-09T08:04:07.673Z,0.71
2024-05-09T08:04:57.773Z,0.70
2024-05-09T08:05:47.684Z,0.68
2024-05-09T08:06:37.829Z,0.65
2024-05-09T08:07:27.714Z,0.63
2024-05-09T08:08:17.813Z,0.61
2024-05-09T08:09:11.046Z,0.58
2024-05-09T08:09:58.913Z,0.58
2024-05-09T08:10:48.071Z,0.58
2024-05-09T08:11:38.040Z,0.59
2024-05-09T08:12:28.233Z,0.58
2024-05-09T08:13:18.254Z,0.56
2024-05-09T08:14:08.215Z,0.54
2024-05-09T08:14:58.224Z,0.56
2024-05-09T08:15:48.655Z,0.58
2024-05-09T08:16:38.554Z,0.55
2024-05-09T08:17:28.741Z,0.53
2024-05-09T08:18:18.711Z,0.52
2024-05-09T08:19:08.927Z,0.55
2024-05-09T08:19:58.754Z,0.54
2024-05-09T08:20:48.852Z,0.57
2024-05-09T08:21:38.894Z,0.57
2024-05-09T08:22:29.065Z,0.60
2024-05-09T08:23:19.073Z,0.64
2024-05-09T08:24:09.264Z,0.61
2024-05-09T08:24:59.167Z,0.58
2024-05-09T08:25:49.254Z,0.58
2024-05-09T08:26:39.244Z,0.56
2024-05-09T08:27:29.434Z,0.55
2024-05-09T08:28:19.495Z,0.53
2024-05-09T08:29:09.448Z,0.51
2024-05-09T08:29:59.523Z,0.50
2024-05-09T08:30:49.806Z,0.50
2024-05-09T08:31:39.970Z,0.52
2024-05-09T08:32:30.093Z,0.52
2024-05-09T08:33:20.096Z,0.52
2024-05-09T08:34:10.197Z,0.52
2024-05-09T08:35:00.130Z,0.52
2024-05-09T08:35:50.148Z,0.53
2024-05-09T08:36:40.422Z,0.54
2024-05-09T08:37:35.015Z,0.56
2024-05-09T08:38:21.471Z,0.56
2024-05-09T08:39:10.650Z,0.55
2024-05-09T08:40:00.778Z,0.54
2024-05-09T08:40:50.915Z,0.53
2024-05-09T08:41:40.718Z,0.51
2024-05-09T08:42:30.889Z,0.52
2024-05-09T08:43:20.863Z,0.57
2024-05-09T08:44:10.888Z,0.62
2024-05-09T08:45:01.135Z,0.62
2024-05-09T08:45:51.310Z,0.63
2024-05-09T08:46:41.244Z,0.61
2024-05-09T08:47:31.514Z,0.60
2024-05-09T08:48:21.499Z,0.61
2024-05-09T08:49:11.564Z,0.64
2024-05-09T08:50:01.721Z,0.65
2024-05-09T08:50:51.684Z,0.65
2024-05-09T08:51:41.610Z,0.65
2024-05-09T08:52:31.731Z,0.64
2024-05-09T08:53:21.683Z,0.65
2024-05-09T08:54:11.775Z,0.63
2024-05-09T08:55:01.982Z,0.66
2024-05-09T08:55:52.084Z,0.72
2024-05-09T08:56:42.065Z,0.74
2024-05-09T08:57:32.280Z,0.79
2024-05-09T08:58:22.186Z,0.79
2024-05-09T08:59:12.222Z,0.78
2024-05-09T09:00:03.515Z,0.83
2024-05-09T09:00:52.503Z,0.87
2024-05-09T09:01:42.495Z,0.91
2024-05-09T09:02:32.655Z,0.93
2024-05-09T09:03:22.785Z,1.03
2024-05-09T09:04:12.972Z,0.98
2024-05-09T09:05:02.872Z,1.01
2024-05-09T09:05:53.081Z,1.04
2024-05-09T09:06:42.897Z,1.07
2024-05-09T09:07:33.035Z,1.07
2024-05-09T09:08:22.993Z,1.08
2024-05-09T09:09:13.116Z,1.06
2024-05-09T09:10:04.034Z,1.07
2024-05-09T09:10:53.226Z,1.07
2024-05-09T09:11:43.290Z,1.08
2024-05-09T09:12:33.345Z,0.99
2024-05-09T09:13:23.298Z,0.92
2024-05-09T09:14:13.359Z,0.87
2024-05-09T09:15:03.352Z,0.84
2024-05-09T09:15:53.792Z,0.79
2024-05-09T09:16:43.751Z,0.78
2024-05-09T09:17:34.008Z,0.73
2024-05-09T09:18:24.045Z,0.72
2024-05-09T09:19:14.195Z,0.76
2024-05-09T09:20:04.531Z,0.75
2024-05-09T09:20:54.056Z,0.71
2024-05-09T09:21:44.130Z,0.70
2024-05-09T09:22:34.404Z,0.74
2024-05-09T09:23:24.396Z,0.78
2024-05-09T09:24:14.561Z,0.81
2024-05-09T09:25:04.699Z,0.83
2024-05-09T09:25:54.599Z,0.87
2024-05-09T09:26:44.670Z,0.90
2024-05-09T09:27:34.767Z,0.93
2024-05-09T09:28:24.752Z,0.94
2024-05-09T09:29:14.895Z,0.89
2024-05-09T09:30:07.014Z,0.89
2024-05-09T09:30:55.990Z,0.90
2024-05-09T09:31:45.016Z,0.92
2024-05-09T09:32:35.174Z,0.97
2024-05-09T09:33:25.192Z,1.03
2024-05-09T09:34:15.505Z,1.11
2024-05-09T09:35:05.284Z,1.22
2024-05-09T09:35:55.283Z,1.19
2024-05-09T09:36:45.624Z,1.13
2024-05-09T09:37:35.646Z,1.06
2024-05-09T09:38:25.681Z,1.08
2024-05-09T09:39:15.786Z,1.09
2024-05-09T09:40:07.098Z,1.16
2024-05-09T09:40:55.987Z,1.16
2024-05-09T09:41:45.954Z,1.14
2024-05-09T09:42:36.209Z,1.16
2024-05-09T09:43:26.364Z,1.20
2024-05-09T09:44:16.370Z,1.17
2024-05-09T09:45:06.442Z,1.18
2024-05-09T09:45:56.533Z,1.20
2024-05-09T09:46:46.516Z,1.23
2024-05-09T09:47:36.834Z,1.28
2024-05-09T09:48:26.704Z,1.13
2024-05-09T09:49:17.056Z,1.18
2024-05-09T09:50:12.045Z,1.18
2024-05-09T09:50:57.963Z,1.18
2024-05-09T09:51:46.968Z,1.18
2024-05-09T09:52:37.078Z,1.19
2024-05-09T09:53:27.023Z,1.18
2024-05-09T09:54:17.129Z,1.19
2024-05-09T09:55:07.158Z,1.18
2024-05-09T09:55:57.274Z,1.20
2024-05-09T09:56:47.252Z,1.21
2024-05-09T09:57:37.329Z,1.21
2024-05-09T09:58:27.621Z,1.21
2024-05-09T09:59:17.478Z,1.21
2024-05-09T10:00:11.741Z,1.21
2024-05-09T10:00:57.687Z,1.21
2024-05-09T10:01:47.811Z,1.21
2024-05-09T10:02:37.800Z,1.22
2024-05-09T10:03:28.051Z,1.22
2024-05-09T10:04:18.080Z,1.21
2024-05-09T10:05:08.121Z,1.22
2024-05-09T10:05:58.086Z,1.26
2024-05-09T10:06:48.066Z,1.23
2024-05-09T10:07:38.115Z,1.31
2024-05-09T10:08:28.102Z,1.25
2024-05-09T10:09:18.267Z,1.26
2024-05-09T10:10:11.007Z,1.26
2024-05-09T10:10:59.440Z,1.26
2024-05-09T10:11:52.035Z,1.28
2024-05-09T10:12:38.542Z,1.26
2024-05-09T10:13:28.429Z,1.26
2024-05-09T10:14:18.520Z,1.26
2024-05-09T10:15:08.527Z,1.26
2024-05-09T10:15:58.703Z,1.31
2024-05-09T10:16:48.665Z,1.29
2024-05-09T10:17:38.933Z,1.33
2024-05-09T10:18:31.200Z,1.34
2024-05-09T10:19:19.060Z,1.31
2024-05-09T10:20:14.902Z,1.23
2024-05-09T10:20:59.953Z,1.23
2024-05-09T10:21:49.165Z,1.22
2024-05-09T10:22:39.042Z,1.21
2024-05-09T10:23:29.195Z,1.16
2024-05-09T10:24:19.142Z,1.11
2024-05-09T10:25:09.312Z,1.13
2024-05-09T10:25:59.245Z,1.02
2024-05-09T10:26:49.554Z,1.00
2024-05-09T10:27:39.639Z,1.00
2024-05-09T10:28:29.697Z,0.99
2024-05-09T10:29:19.716Z,0.97
2024-05-09T10:30:14.823Z,0.98
2024-05-09T10:31:00.931Z,0.98
2024-05-09T10:31:50.051Z,0.98
2024-05-09T10:32:40.131Z,0.99
2024-05-09T10:33:30.383Z,1.00
2024-05-09T10:34:20.728Z,1.04
2024-05-09T10:35:10.209Z,1.08
2024-05-09T10:36:00.170Z,1.07
2024-05-09T10:36:50.247Z,1.09
2024-05-09T10:37:40.222Z,1.11
2024-05-09T10:38:30.340Z,1.20
2024-05-09T10:39:20.346Z,1.28
2024-05-09T10:40:17.242Z,1.34
2024-05-09T10:41:01.416Z,1.34
2024-05-09T10:41:50.594Z,1.35
2024-05-09T10:42:40.545Z,1.38
2024-05-09T10:43:30.662Z,1.39
2024-05-09T10:44:20.584Z,1.42
2024-05-09T10:45:10.642Z,1.33
2024-05-09T10:46:00.914Z,1.38
2024-05-09T10:46:51.054Z,1.33
2024-05-09T10:47:41.154Z,1.22
2024-05-09T10:48:31.190Z,1.21
2024-05-09T10:49:21.276Z,1.15
2024-05-09T10:50:21.992Z,1.20
2024-05-09T10:51:02.261Z,1.20
2024-05-09T10:51:51.411Z,1.21
2024-05-09T10:52:41.353Z,1.21
2024-05-09T10:53:31.484Z,1.23
2024-05-09T10:54:21.501Z,1.23
2024-05-09T10:55:11.566Z,1.24
2024-05-09T10:56:01.613Z,1.28
2024-05-09T10:56:51.907Z,1.26
2024-05-09T10:57:41.906Z,1.28
2024-05-09T10:58:31.926Z,1.30
2024-05-09T10:59:21.968Z,1.28
2024-05-09T11:00:19.015Z,1.26
2024-05-09T11:01:06.442Z,1.26
2024-05-09T11:01:52.276Z,1.26
2024-05-09T11:02:42.258Z,1.27
2024-05-09T11:03:32.517Z,1.28
2024-05-09T11:04:22.310Z,1.31
2024-05-09T11:05:12.584Z,1.46
2024-05-09T11:06:02.790Z,1.61
2024-05-09T11:06:52.829Z,1.60
2024-05-09T11:07:42.763Z,1.50
2024-05-09T11:08:33.027Z,1.38
2024-05-09T11:09:22.838Z,1.30
2024-05-09T11:10:14.806Z,1.25
2024-05-09T11:11:03.905Z,1.23